Terminal Aerodrome Forecast
Issued by NWS La Crosse, WI

Home | Current Version | Previous Version | Text Only | Print | Product List | Glossary On
Versions: 1 2 3 4 5 6 7 8 9 10 11 12 13 14 15 16 17 18 19 20 21 22 23 24 25 26 27 28 29 30 31 32 33 34 35 36 37 38 39 40 41
000
FTUS43 KARX 211027 AAA
TAFRST
TAF AMD
KRST 211027Z 2110/2206 14007KT P6SM -RA BKN100
     FM211100 14008KT P6SM -SHRA VCTS BKN010CB
      TEMPO 2111/2114 2SM -TSRA BKN006CB
     FM211400 16009KT 5SM -SHRA VCTS BKN008CB
     FM211600 17010KT P6SM SCT008 BKN040
     FM212200 17010KT P6SM VCTS BKN040CB
     FM220200 17005KT 6SM BR SCT040=

USA.gov is the U.S. government's official web portal to all federal, state and local government web resources and services.